sensor_id;sensor_type;location;lat;lon;timestamp;P1;durP1;ratioP1;P2;durP2;ratioP2
71503;SDS011;59323;50.874;7.028;2023-10-19T00:00:56;13.13;;;6.65;;
71503;SDS011;59323;50.874;7.028;2023-10-19T00:03:22;15.23;;;6.53;;
71503;SDS011;59323;50.874;7.028;2023-10-19T00:05:49;12.27;;;6.18;;
71503;SDS011;59323;50.874;7.028;2023-10-19T00:08:15;13.50;;;6.65;;
71503;SDS011;59323;50.874;7.028;2023-10-19T00:10:46;13.07;;;5.93;;
71503;SDS011;59323;50.874;7.028;2023-10-19T00:13:15;13.13;;;6.40;;
71503;SDS011;59323;50.874;7.028;2023-10-19T00:15:43;12.30;;;6.30;;
71503;SDS011;59323;50.874;7.028;2023-10-19T00:18:13;12.63;;;6.28;;
71503;SDS011;59323;50.874;7.028;2023-10-19T00:20:52;12.80;;;6.33;;
71503;SDS011;59323;50.874;7.028;2023-10-19T00:23:45;12.27;;;6.63;;
71503;SDS011;59323;50.874;7.028;2023-10-19T00:26:19;12.07;;;6.97;;
71503;SDS011;59323;50.874;7.028;2023-10-19T00:31:59;15.48;;;6.68;;
71503;SDS011;59323;50.874;7.028;2023-10-19T00:34:28;14.03;;;6.50;;
71503;SDS011;59323;50.874;7.028;2023-10-19T00:36:54;14.48;;;6.95;;
71503;SDS011;59323;50.874;7.028;2023-10-19T00:39:22;14.15;;;6.97;;
71503;SDS011;59323;50.874;7.028;2023-10-19T00:41:49;13.10;;;6.68;;
71503;SDS011;59323;50.874;7.028;2023-10-19T00:44:17;14.32;;;6.93;;
71503;SDS011;59323;50.874;7.028;2023-10-19T00:46:50;13.70;;;7.13;;
71503;SDS011;59323;50.874;7.028;2023-10-19T00:49:25;12.35;;;6.45;;
71503;SDS011;59323;50.874;7.028;2023-10-19T00:51:52;13.02;;;6.13;;
71503;SDS011;59323;50.874;7.028;2023-10-19T00:54:28;13.05;;;6.75;;
71503;SDS011;59323;50.874;7.028;2023-10-19T00:57:05;13.05;;;6.30;;
71503;SDS011;59323;50.874;7.028;2023-10-19T00:59:36;14.60;;;7.00;;
71503;SDS011;59323;50.874;7.028;2023-10-19T01:02:12;12.52;;;7.20;;
71503;SDS011;59323;50.874;7.028;2023-10-19T01:04:44;14.18;;;7.30;;
71503;SDS011;59323;50.874;7.028;2023-10-19T01:07:12;13.10;;;6.65;;
71503;SDS011;59323;50.874;7.028;2023-10-19T01:09:46;14.70;;;7.43;;
71503;SDS011;59323;50.874;7.028;2023-10-19T01:12:12;14.80;;;6.63;;
71503;SDS011;59323;50.874;7.028;2023-10-19T01:17:38;14.45;;;7.43;;
71503;SDS011;59323;50.874;7.028;2023-10-19T01:20:14;17.97;;;7.40;;
71503;SDS011;59323;50.874;7.028;2023-10-19T01:22:56;16.45;;;7.93;;
71503;SDS011;59323;50.874;7.028;2023-10-19T01:25:47;14.63;;;7.38;;
71503;SDS011;59323;50.874;7.028;2023-10-19T01:28:26;13.80;;;6.65;;
71503;SDS011;59323;50.874;7.028;2023-10-19T01:31:10;16.05;;;7.70;;
71503;SDS011;59323;50.874;7.028;2023-10-19T01:33:55;12.97;;;7.83;;
71503;SDS011;59323;50.874;7.028;2023-10-19T01:36:26;15.93;;;7.65;;
71503;SDS011;59323;50.874;7.028;2023-10-19T01:38:55;13.27;;;7.03;;
71503;SDS011;59323;50.874;7.028;2023-10-19T01:41:26;15.05;;;7.05;;
71503;SDS011;59323;50.874;7.028;2023-10-19T01:43:52;14.13;;;7.57;;
71503;SDS011;59323;50.874;7.028;2023-10-19T01:46:19;13.30;;;6.20;;
71503;SDS011;59323;50.874;7.028;2023-10-19T01:49:02;15.80;;;6.88;;
71503;SDS011;59323;50.874;7.028;2023-10-19T01:51:30;13.35;;;7.43;;
71503;SDS011;59323;50.874;7.028;2023-10-19T01:54:08;14.77;;;7.22;;
71503;SDS011;59323;50.874;7.028;2023-10-19T01:56:34;13.35;;;7.13;;
71503;SDS011;59323;50.874;7.028;2023-10-19T01:59:01;12.93;;;7.00;;
71503;SDS011;59323;50.874;7.028;2023-10-19T02:01:28;14.75;;;7.35;;
71503;SDS011;59323;50.874;7.028;2023-10-19T02:03:55;14.55;;;7.03;;
71503;SDS011;59323;50.874;7.028;2023-10-19T02:06:24;15.48;;;7.15;;
71503;SDS011;59323;50.874;7.028;2023-10-19T02:09:00;14.47;;;6.63;;
71503;SDS011;59323;50.874;7.028;2023-10-19T02:11:47;17.98;;;7.10;;
71503;SDS011;59323;50.874;7.028;2023-10-19T02:14:13;13.75;;;7.35;;
71503;SDS011;59323;50.874;7.028;2023-10-19T02:16:40;13.65;;;6.55;;
71503;SDS011;59323;50.874;7.028;2023-10-19T02:19:07;13.55;;;6.95;;
71503;SDS011;59323;50.874;7.028;2023-10-19T02:21:33;14.47;;;7.47;;
71503;SDS011;59323;50.874;7.028;2023-10-19T02:24:04;11.83;;;6.30;;
71503;SDS011;59323;50.874;7.028;2023-10-19T02:26:32;12.93;;;6.45;;
71503;SDS011;59323;50.874;7.028;2023-10-19T02:29:02;13.25;;;6.72;;
71503;SDS011;59323;50.874;7.028;2023-10-19T02:31:32;13.93;;;7.05;;
71503;SDS011;59323;50.874;7.028;2023-10-19T02:34:05;12.65;;;6.45;;
71503;SDS011;59323;50.874;7.028;2023-10-19T02:36:32;13.60;;;6.67;;
71503;SDS011;59323;50.874;7.028;2023-10-19T02:38:59;11.10;;;5.88;;
71503;SDS011;59323;50.874;7.028;2023-10-19T02:41:29;12.80;;;6.97;;
71503;SDS011;59323;50.874;7.028;2023-10-19T02:43:54;12.83;;;6.53;;
71503;SDS011;59323;50.874;7.028;2023-10-19T02:46:31;12.98;;;6.68;;
71503;SDS011;59323;50.874;7.028;2023-10-19T02:49:03;12.23;;;6.47;;
71503;SDS011;59323;50.874;7.028;2023-10-19T02:51:34;14.75;;;6.60;;
71503;SDS011;59323;50.874;7.028;2023-10-19T02:53:59;14.43;;;6.50;;
71503;SDS011;59323;50.874;7.028;2023-10-19T02:56:27;12.50;;;6.43;;
71503;SDS011;59323;50.874;7.028;2023-10-19T02:58:55;13.30;;;6.13;;
71503;SDS011;59323;50.874;7.028;2023-10-19T03:01:27;12.75;;;6.65;;
71503;SDS011;59323;50.874;7.028;2023-10-19T03:03:56;14.02;;;6.10;;
71503;SDS011;59323;50.874;7.028;2023-10-19T03:06:25;12.98;;;6.15;;
71503;SDS011;59323;50.874;7.028;2023-10-19T03:08:59;10.75;;;5.80;;
71503;SDS011;59323;50.874;7.028;2023-10-19T03:11:29;12.53;;;6.43;;
71503;SDS011;59323;50.874;7.028;2023-10-19T03:13:57;10.85;;;5.85;;
71503;SDS011;59323;50.874;7.028;2023-10-19T03:16:23;10.85;;;6.00;;
71503;SDS011;59323;50.874;7.028;2023-10-19T03:18:51;11.50;;;6.15;;
71503;SDS011;59323;50.874;7.028;2023-10-19T03:21:20;11.27;;;5.82;;
71503;SDS011;59323;50.874;7.028;2023-10-19T03:23:51;13.70;;;5.83;;
71503;SDS011;59323;50.874;7.028;2023-10-19T03:26:17;10.88;;;5.45;;
71503;SDS011;59323;50.874;7.028;2023-10-19T03:28:43;12.93;;;5.53;;
71503;SDS011;59323;50.874;7.028;2023-10-19T03:31:10;12.93;;;6.00;;
71503;SDS011;59323;50.874;7.028;2023-10-19T03:33:43;11.90;;;5.63;;
71503;SDS011;59323;50.874;7.028;2023-10-19T03:36:18;12.15;;;6.38;;
71503;SDS011;59323;50.874;7.028;2023-10-19T03:38:44;13.75;;;6.50;;
71503;SDS011;59323;50.874;7.028;2023-10-19T03:41:10;12.77;;;6.80;;
71503;SDS011;59323;50.874;7.028;2023-10-19T03:43:36;14.02;;;6.55;;
71503;SDS011;59323;50.874;7.028;2023-10-19T03:46:08;12.70;;;6.57;;
71503;SDS011;59323;50.874;7.028;2023-10-19T03:48:51;15.15;;;6.50;;
71503;SDS011;59323;50.874;7.028;2023-10-19T03:51:17;13.60;;;6.70;;
71503;SDS011;59323;50.874;7.028;2023-10-19T03:53:43;12.65;;;6.60;;
71503;SDS011;59323;50.874;7.028;2023-10-19T03:56:19;13.13;;;6.47;;
71503;SDS011;59323;50.874;7.028;2023-10-19T03:58:48;14.67;;;7.00;;
71503;SDS011;59323;50.874;7.028;2023-10-19T04:01:16;16.73;;;7.18;;
71503;SDS011;59323;50.874;7.028;2023-10-19T04:03:44;14.38;;;7.28;;
71503;SDS011;59323;50.874;7.028;2023-10-19T04:06:10;15.23;;;7.27;;
71503;SDS011;59323;50.874;7.028;2023-10-19T04:08:41;11.18;;;6.60;;
71503;SDS011;59323;50.874;7.028;2023-10-19T04:11:15;12.48;;;5.97;;
71503;SDS011;59323;50.874;7.028;2023-10-19T04:13:48;12.30;;;6.38;;
71503;SDS011;59323;50.874;7.028;2023-10-19T04:16:18;18.75;;;6.78;;
71503;SDS011;59323;50.874;7.028;2023-10-19T04:18:43;14.33;;;6.67;;
71503;SDS011;59323;50.874;7.028;2023-10-19T04:21:09;14.18;;;6.82;;
71503;SDS011;59323;50.874;7.028;2023-10-19T04:23:35;16.23;;;7.23;;
71503;SDS011;59323;50.874;7.028;2023-10-19T04:26:01;13.25;;;6.38;;
71503;SDS011;59323;50.874;7.028;2023-10-19T04:28:44;14.05;;;7.13;;
71503;SDS011;59323;50.874;7.028;2023-10-19T04:31:10;12.23;;;6.23;;
71503;SDS011;59323;50.874;7.028;2023-10-19T04:33:39;11.27;;;5.50;;
71503;SDS011;59323;50.874;7.028;2023-10-19T04:36:07;13.10;;;6.70;;
71503;SDS011;59323;50.874;7.028;2023-10-19T04:38:36;12.87;;;5.87;;
71503;SDS011;59323;50.874;7.028;2023-10-19T04:41:08;13.20;;;5.88;;
71503;SDS011;59323;50.874;7.028;2023-10-19T04:43:38;11.43;;;6.28;;
71503;SDS011;59323;50.874;7.028;2023-10-19T04:46:07;15.40;;;6.80;;
71503;SDS011;59323;50.874;7.028;2023-10-19T04:48:36;12.03;;;6.23;;
71503;SDS011;59323;50.874;7.028;2023-10-19T04:51:04;10.27;;;5.40;;
71503;SDS011;59323;50.874;7.028;2023-10-19T04:53:31;13.93;;;6.78;;
71503;SDS011;59323;50.874;7.028;2023-10-19T04:55:57;14.90;;;6.55;;
71503;SDS011;59323;50.874;7.028;2023-10-19T04:58:25;13.63;;;6.30;;
71503;SDS011;59323;50.874;7.028;2023-10-19T05:00:53;14.52;;;6.20;;
71503;SDS011;59323;50.874;7.028;2023-10-19T05:03:19;12.70;;;6.50;;
71503;SDS011;59323;50.874;7.028;2023-10-19T05:05:44;12.17;;;6.33;;
71503;SDS011;59323;50.874;7.028;2023-10-19T05:08:19;12.73;;;6.25;;
71503;SDS011;59323;50.874;7.028;2023-10-19T05:10:45;14.17;;;6.73;;
71503;SDS011;59323;50.874;7.028;2023-10-19T05:13:11;13.05;;;6.53;;
71503;SDS011;59323;50.874;7.028;2023-10-19T05:15:37;15.23;;;7.38;;
71503;SDS011;59323;50.874;7.028;2023-10-19T05:18:03;12.00;;;6.30;;
71503;SDS011;59323;50.874;7.028;2023-10-19T05:20:32;12.98;;;6.68;;
71503;SDS011;59323;50.874;7.028;2023-10-19T05:23:05;15.15;;;6.60;;
71503;SDS011;59323;50.874;7.028;2023-10-19T05:25:34;17.27;;;6.13;;
71503;SDS011;59323;50.874;7.028;2023-10-19T05:28:02;13.80;;;6.90;;
71503;SDS011;59323;50.874;7.028;2023-10-19T05:30:29;12.63;;;5.97;;
71503;SDS011;59323;50.874;7.028;2023-10-19T05:32:58;14.30;;;7.05;;
71503;SDS011;59323;50.874;7.028;2023-10-19T05:35:29;13.18;;;6.47;;
71503;SDS011;59323;50.874;7.028;2023-10-19T05:37:56;15.20;;;6.82;;
71503;SDS011;59323;50.874;7.028;2023-10-19T05:40:24;11.82;;;6.65;;
71503;SDS011;59323;50.874;7.028;2023-10-19T05:42:58;12.73;;;6.43;;
71503;SDS011;59323;50.874;7.028;2023-10-19T05:45:25;16.42;;;7.43;;
71503;SDS011;59323;50.874;7.028;2023-10-19T05:47:51;13.25;;;7.05;;
71503;SDS011;59323;50.874;7.028;2023-10-19T05:50:17;14.00;;;6.33;;
71503;SDS011;59323;50.874;7.028;2023-10-19T05:52:45;15.05;;;7.32;;
71503;SDS011;59323;50.874;7.028;2023-10-19T05:55:12;15.10;;;6.78;;
71503;SDS011;59323;50.874;7.028;2023-10-19T05:57:38;14.33;;;6.73;;
71503;SDS011;59323;50.874;7.028;2023-10-19T06:00:10;13.40;;;6.70;;
71503;SDS011;59323;50.874;7.028;2023-10-19T06:02:47;13.18;;;7.07;;
71503;SDS011;59323;50.874;7.028;2023-10-19T06:05:16;13.70;;;6.63;;
71503;SDS011;59323;50.874;7.028;2023-10-19T06:07:46;14.90;;;6.00;;
71503;SDS011;59323;50.874;7.028;2023-10-19T06:10:14;12.70;;;6.22;;
71503;SDS011;59323;50.874;7.028;2023-10-19T06:12:42;14.02;;;6.50;;
71503;SDS011;59323;50.874;7.028;2023-10-19T06:15:23;12.25;;;5.65;;
71503;SDS011;59323;50.874;7.028;2023-10-19T06:17:52;13.40;;;6.85;;
71503;SDS011;59323;50.874;7.028;2023-10-19T06:20:17;11.70;;;5.47;;
71503;SDS011;59323;50.874;7.028;2023-10-19T06:22:50;11.85;;;6.47;;
71503;SDS011;59323;50.874;7.028;2023-10-19T06:25:20;12.17;;;5.70;;
71503;SDS011;59323;50.874;7.028;2023-10-19T06:27:46;13.25;;;6.72;;
71503;SDS011;59323;50.874;7.028;2023-10-19T06:30:16;11.98;;;6.07;;
71503;SDS011;59323;50.874;7.028;2023-10-19T06:32:48;14.23;;;6.63;;
71503;SDS011;59323;50.874;7.028;2023-10-19T06:35:27;13.85;;;6.80;;
71503;SDS011;59323;50.874;7.028;2023-10-19T06:37:54;13.67;;;6.43;;
71503;SDS011;59323;50.874;7.028;2023-10-19T06:40:20;16.50;;;7.07;;
71503;SDS011;59323;50.874;7.028;2023-10-19T06:42:47;16.10;;;7.22;;
71503;SDS011;59323;50.874;7.028;2023-10-19T06:45:14;13.50;;;7.25;;
71503;SDS011;59323;50.874;7.028;2023-10-19T06:47:41;16.08;;;7.93;;
71503;SDS011;59323;50.874;7.028;2023-10-19T06:50:07;15.67;;;7.90;;
71503;SDS011;59323;50.874;7.028;2023-10-19T06:52:35;15.68;;;7.45;;
71503;SDS011;59323;50.874;7.028;2023-10-19T06:55:06;15.50;;;7.40;;
71503;SDS011;59323;50.874;7.028;2023-10-19T06:57:41;15.07;;;7.03;;
71503;SDS011;59323;50.874;7.028;2023-10-19T07:00:09;13.95;;;7.35;;
71503;SDS011;59323;50.874;7.028;2023-10-19T07:02:43;16.13;;;8.37;;
71503;SDS011;59323;50.874;7.028;2023-10-19T07:05:13;17.58;;;8.13;;
71503;SDS011;59323;50.874;7.028;2023-10-19T07:07:43;15.55;;;7.93;;
71503;SDS011;59323;50.874;7.028;2023-10-19T07:10:09;16.33;;;8.82;;
71503;SDS011;59323;50.874;7.028;2023-10-19T07:12:39;17.50;;;8.95;;
71503;SDS011;59323;50.874;7.028;2023-10-19T07:15:07;16.80;;;8.10;;
71503;SDS011;59323;50.874;7.028;2023-10-19T07:17:36;18.42;;;8.38;;
71503;SDS011;59323;50.874;7.028;2023-10-19T07:20:03;18.35;;;8.35;;
71503;SDS011;59323;50.874;7.028;2023-10-19T07:22:31;16.55;;;8.48;;
71503;SDS011;59323;50.874;7.028;2023-10-19T07:25:04;14.63;;;7.35;;
71503;SDS011;59323;50.874;7.028;2023-10-19T07:27:34;15.37;;;7.70;;
71503;SDS011;59323;50.874;7.028;2023-10-19T07:30:00;21.10;;;8.70;;
71503;SDS011;59323;50.874;7.028;2023-10-19T07:32:30;17.02;;;8.27;;
71503;SDS011;59323;50.874;7.028;2023-10-19T07:34:56;15.13;;;8.03;;
71503;SDS011;59323;50.874;7.028;2023-10-19T07:37:21;19.08;;;8.65;;
71503;SDS011;59323;50.874;7.028;2023-10-19T07:39:47;18.25;;;7.90;;
71503;SDS011;59323;50.874;7.028;2023-10-19T07:42:16;17.73;;;8.07;;
71503;SDS011;59323;50.874;7.028;2023-10-19T07:44:42;19.35;;;8.50;;
71503;SDS011;59323;50.874;7.028;2023-10-19T07:47:07;16.57;;;8.50;;
71503;SDS011;59323;50.874;7.028;2023-10-19T07:49:35;16.55;;;7.78;;
71503;SDS011;59323;50.874;7.028;2023-10-19T07:52:04;16.48;;;7.85;;
71503;SDS011;59323;50.874;7.028;2023-10-19T07:54:31;16.10;;;8.00;;
71503;SDS011;59323;50.874;7.028;2023-10-19T07:56:58;15.98;;;8.13;;
71503;SDS011;59323;50.874;7.028;2023-10-19T07:59:23;14.20;;;7.07;;
71503;SDS011;59323;50.874;7.028;2023-10-19T08:01:48;18.87;;;8.30;;
71503;SDS011;59323;50.874;7.028;2023-10-19T08:04:14;12.47;;;7.13;;
71503;SDS011;59323;50.874;7.028;2023-10-19T08:06:39;16.83;;;7.37;;
71503;SDS011;59323;50.874;7.028;2023-10-19T08:09:04;14.60;;;6.90;;
71503;SDS011;59323;50.874;7.028;2023-10-19T08:11:30;14.20;;;6.70;;
71503;SDS011;59323;50.874;7.028;2023-10-19T08:13:56;16.70;;;6.37;;
71503;SDS011;59323;50.874;7.028;2023-10-19T08:16:27;15.02;;;6.30;;
71503;SDS011;59323;50.874;7.028;2023-10-19T08:18:52;14.45;;;6.07;;
71503;SDS011;59323;50.874;7.028;2023-10-19T08:21:18;12.73;;;6.70;;
71503;SDS011;59323;50.874;7.028;2023-10-19T08:23:43;11.80;;;6.27;;
71503;SDS011;59323;50.874;7.028;2023-10-19T08:26:10;13.10;;;6.25;;
71503;SDS011;59323;50.874;7.028;2023-10-19T08:28:35;12.70;;;6.27;;
71503;SDS011;59323;50.874;7.028;2023-10-19T08:31:02;10.48;;;5.43;;
71503;SDS011;59323;50.874;7.028;2023-10-19T08:33:28;12.73;;;5.53;;
71503;SDS011;59323;50.874;7.028;2023-10-19T08:35:55;10.55;;;5.30;;
71503;SDS011;59323;50.874;7.028;2023-10-19T08:38:22;11.53;;;5.70;;
71503;SDS011;59323;50.874;7.028;2023-10-19T08:40:49;11.98;;;5.35;;
71503;SDS011;59323;50.874;7.028;2023-10-19T08:43:16;10.10;;;5.43;;
71503;SDS011;59323;50.874;7.028;2023-10-19T08:45:47;11.68;;;5.30;;
71503;SDS011;59323;50.874;7.028;2023-10-19T08:48:12;12.00;;;5.40;;
71503;SDS011;59323;50.874;7.028;2023-10-19T08:50:39;11.27;;;5.07;;
71503;SDS011;59323;50.874;7.028;2023-10-19T08:53:05;10.20;;;4.93;;
71503;SDS011;59323;50.874;7.028;2023-10-19T08:55:33;10.07;;;4.45;;
71503;SDS011;59323;50.874;7.028;2023-10-19T08:57:59;11.32;;;4.18;;
71503;SDS011;59323;50.874;7.028;2023-10-19T09:00:25;9.90;;;3.83;;
71503;SDS011;59323;50.874;7.028;2023-10-19T09:02:51;9.35;;;4.05;;
71503;SDS011;59323;50.874;7.028;2023-10-19T09:05:21;11.77;;;3.88;;
71503;SDS011;59323;50.874;7.028;2023-10-19T09:07:51;8.88;;;3.63;;
71503;SDS011;59323;50.874;7.028;2023-10-19T09:10:29;9.30;;;3.13;;
71503;SDS011;59323;50.874;7.028;2023-10-19T09:13:04;10.23;;;3.67;;
71503;SDS011;59323;50.874;7.028;2023-10-19T09:15:34;7.75;;;2.72;;
71503;SDS011;59323;50.874;7.028;2023-10-19T09:20:41;9.15;;;2.78;;
71503;SDS011;59323;50.874;7.028;2023-10-19T09:23:17;7.72;;;2.58;;
71503;SDS011;59323;50.874;7.028;2023-10-19T09:25:51;9.63;;;2.80;;
71503;SDS011;59323;50.874;7.028;2023-10-19T09:28:21;10.88;;;3.33;;
71503;SDS011;59323;50.874;7.028;2023-10-19T09:30:49;7.85;;;2.65;;
71503;SDS011;59323;50.874;7.028;2023-10-19T09:33:16;8.98;;;2.70;;
71503;SDS011;59323;50.874;7.028;2023-10-19T09:35:46;8.67;;;2.53;;
71503;SDS011;59323;50.874;7.028;2023-10-19T09:38:13;8.15;;;2.10;;
71503;SDS011;59323;50.874;7.028;2023-10-19T09:40:47;9.57;;;2.35;;
71503;SDS011;59323;50.874;7.028;2023-10-19T09:43:15;8.98;;;2.60;;
71503;SDS011;59323;50.874;7.028;2023-10-19T09:45:42;7.68;;;2.10;;
71503;SDS011;59323;50.874;7.028;2023-10-19T09:48:16;8.17;;;2.00;;
71503;SDS011;59323;50.874;7.028;2023-10-19T09:50:45;9.13;;;2.13;;
71503;SDS011;59323;50.874;7.028;2023-10-19T09:53:20;7.15;;;2.05;;
71503;SDS011;59323;50.874;7.028;2023-10-19T09:55:57;6.70;;;1.60;;
71503;SDS011;59323;50.874;7.028;2023-10-19T09:58:31;6.85;;;1.63;;
71503;SDS011;59323;50.874;7.028;2023-10-19T10:01:02;7.90;;;1.50;;
71503;SDS011;59323;50.874;7.028;2023-10-19T10:06:17;8.52;;;1.92;;
71503;SDS011;59323;50.874;7.028;2023-10-19T10:08:52;9.73;;;2.10;;
71503;SDS011;59323;50.874;7.028;2023-10-19T10:11:22;6.40;;;1.77;;
71503;SDS011;59323;50.874;7.028;2023-10-19T10:13:50;4.57;;;1.73;;
71503;SDS011;59323;50.874;7.028;2023-10-19T10:16:25;7.10;;;2.15;;
71503;SDS011;59323;50.874;7.028;2023-10-19T10:18:57;8.75;;;1.88;;
71503;SDS011;59323;50.874;7.028;2023-10-19T10:21:31;6.63;;;1.70;;
71503;SDS011;59323;50.874;7.028;2023-10-19T10:23:59;6.03;;;1.70;;
71503;SDS011;59323;50.874;7.028;2023-10-19T10:26:28;9.25;;;2.15;;
71503;SDS011;59323;50.874;7.028;2023-10-19T10:31:48;5.25;;;1.67;;
71503;SDS011;59323;50.874;7.028;2023-10-19T10:34:57;8.57;;;1.90;;
71503;SDS011;59323;50.874;7.028;2023-10-19T10:39:40;7.32;;;1.63;;
71503;SDS011;59323;50.874;7.028;2023-10-19T10:42:09;8.25;;;1.95;;
71503;SDS011;59323;50.874;7.028;2023-10-19T10:44:44;8.82;;;1.70;;
71503;SDS011;59323;50.874;7.028;2023-10-19T10:47:21;5.60;;;1.60;;
71503;SDS011;59323;50.874;7.028;2023-10-19T10:49:48;10.52;;;1.70;;
71503;SDS011;59323;50.874;7.028;2023-10-19T10:52:35;6.28;;;1.83;;
71503;SDS011;59323;50.874;7.028;2023-10-19T10:55:12;8.85;;;1.42;;
71503;SDS011;59323;50.874;7.028;2023-10-19T10:57:43;5.88;;;1.58;;
71503;SDS011;59323;50.874;7.028;2023-10-19T11:00:10;5.27;;;1.90;;
71503;SDS011;59323;50.874;7.028;2023-10-19T11:02:44;7.75;;;1.38;;
71503;SDS011;59323;50.874;7.028;2023-10-19T11:05:11;6.00;;;1.58;;
71503;SDS011;59323;50.874;7.028;2023-10-19T11:07:38;6.93;;;1.42;;
71503;SDS011;59323;50.874;7.028;2023-10-19T11:10:28;9.05;;;1.90;;
71503;SDS011;59323;50.874;7.028;2023-10-19T11:13:00;7.93;;;1.90;;
71503;SDS011;59323;50.874;7.028;2023-10-19T11:15:36;7.57;;;1.88;;
71503;SDS011;59323;50.874;7.028;2023-10-19T11:18:03;6.22;;;1.27;;
71503;SDS011;59323;50.874;7.028;2023-10-19T11:20:35;11.02;;;3.08;;
71503;SDS011;59323;50.874;7.028;2023-10-19T11:23:00;5.17;;;1.80;;
71503;SDS011;59323;50.874;7.028;2023-10-19T11:25:28;8.93;;;1.58;;
71503;SDS011;59323;50.874;7.028;2023-10-19T11:27:55;8.30;;;1.58;;
71503;SDS011;59323;50.874;7.028;2023-10-19T11:30:27;7.80;;;1.55;;
71503;SDS011;59323;50.874;7.028;2023-10-19T11:33:03;7.10;;;1.50;;
71503;SDS011;59323;50.874;7.028;2023-10-19T11:35:29;7.32;;;1.60;;
71503;SDS011;59323;50.874;7.028;2023-10-19T11:37:56;9.15;;;1.70;;
71503;SDS011;59323;50.874;7.028;2023-10-19T11:40:24;8.00;;;1.48;;
71503;SDS011;59323;50.874;7.028;2023-10-19T11:42:50;6.03;;;1.45;;
71503;SDS011;59323;50.874;7.028;2023-10-19T11:45:18;11.67;;;1.50;;
71503;SDS011;59323;50.874;7.028;2023-10-19T11:47:44;6.80;;;2.00;;
71503;SDS011;59323;50.874;7.028;2023-10-19T11:50:11;8.07;;;2.10;;
71503;SDS011;59323;50.874;7.028;2023-10-19T11:52:39;8.52;;;2.75;;
71503;SDS011;59323;50.874;7.028;2023-10-19T11:55:05;9.70;;;3.10;;
71503;SDS011;59323;50.874;7.028;2023-10-19T11:57:31;7.77;;;2.10;;
71503;SDS011;59323;50.874;7.028;2023-10-19T11:59:57;6.57;;;1.77;;
71503;SDS011;59323;50.874;7.028;2023-10-19T12:02:24;9.60;;;2.40;;
71503;SDS011;59323;50.874;7.028;2023-10-19T12:04:50;7.33;;;2.13;;
71503;SDS011;59323;50.874;7.028;2023-10-19T12:07:15;7.03;;;1.67;;
71503;SDS011;59323;50.874;7.028;2023-10-19T12:09:41;8.23;;;1.48;;
71503;SDS011;59323;50.874;7.028;2023-10-19T12:12:06;8.63;;;1.57;;
71503;SDS011;59323;50.874;7.028;2023-10-19T12:14:34;9.65;;;1.48;;
71503;SDS011;59323;50.874;7.028;2023-10-19T12:17:01;8.60;;;1.63;;
71503;SDS011;59323;50.874;7.028;2023-10-19T12:19:30;9.40;;;1.40;;
71503;SDS011;59323;50.874;7.028;2023-10-19T12:21:56;6.97;;;1.73;;
71503;SDS011;59323;50.874;7.028;2023-10-19T12:24:22;10.15;;;2.67;;
71503;SDS011;59323;50.874;7.028;2023-10-19T12:26:48;8.35;;;1.55;;
71503;SDS011;59323;50.874;7.028;2023-10-19T12:29:14;7.60;;;1.70;;
71503;SDS011;59323;50.874;7.028;2023-10-19T12:31:42;9.82;;;1.98;;
71503;SDS011;59323;50.874;7.028;2023-10-19T12:34:07;8.40;;;1.90;;
71503;SDS011;59323;50.874;7.028;2023-10-19T12:36:34;9.43;;;1.77;;
71503;SDS011;59323;50.874;7.028;2023-10-19T12:39:00;5.13;;;1.50;;
71503;SDS011;59323;50.874;7.028;2023-10-19T12:41:26;6.60;;;1.60;;
71503;SDS011;59323;50.874;7.028;2023-10-19T12:43:55;9.43;;;1.87;;
71503;SDS011;59323;50.874;7.028;2023-10-19T12:46:25;7.25;;;1.67;;
71503;SDS011;59323;50.874;7.028;2023-10-19T12:48:55;9.00;;;1.88;;
71503;SDS011;59323;50.874;7.028;2023-10-19T12:51:24;8.48;;;2.17;;
71503;SDS011;59323;50.874;7.028;2023-10-19T12:53:51;8.98;;;1.75;;
71503;SDS011;59323;50.874;7.028;2023-10-19T12:56:17;8.63;;;1.60;;
71503;SDS011;59323;50.874;7.028;2023-10-19T12:58:48;9.02;;;2.03;;
71503;SDS011;59323;50.874;7.028;2023-10-19T13:01:15;9.75;;;1.85;;
71503;SDS011;59323;50.874;7.028;2023-10-19T13:03:48;7.55;;;1.88;;
71503;SDS011;59323;50.874;7.028;2023-10-19T13:06:14;9.00;;;2.17;;
71503;SDS011;59323;50.874;7.028;2023-10-19T13:08:40;8.10;;;1.93;;
71503;SDS011;59323;50.874;7.028;2023-10-19T13:11:09;8.60;;;1.88;;
71503;SDS011;59323;50.874;7.028;2023-10-19T13:13:38;7.28;;;1.50;;
71503;SDS011;59323;50.874;7.028;2023-10-19T13:16:04;9.98;;;1.95;;
71503;SDS011;59323;50.874;7.028;2023-10-19T13:18:30;8.27;;;1.90;;
71503;SDS011;59323;50.874;7.028;2023-10-19T13:20:59;8.48;;;2.42;;
71503;SDS011;59323;50.874;7.028;2023-10-19T13:23:29;9.27;;;2.00;;
71503;SDS011;59323;50.874;7.028;2023-10-19T13:25:57;9.00;;;2.58;;
71503;SDS011;59323;50.874;7.028;2023-10-19T13:28:33;8.80;;;1.98;;
71503;SDS011;59323;50.874;7.028;2023-10-19T13:31:03;5.80;;;1.80;;
71503;SDS011;59323;50.874;7.028;2023-10-19T13:33:29;10.23;;;2.25;;
71503;SDS011;59323;50.874;7.028;2023-10-19T13:35:54;7.23;;;1.90;;
71503;SDS011;59323;50.874;7.028;2023-10-19T13:38:20;9.83;;;2.20;;
71503;SDS011;59323;50.874;7.028;2023-10-19T13:40:45;10.33;;;1.80;;
71503;SDS011;59323;50.874;7.028;2023-10-19T13:43:11;8.52;;;2.30;;
71503;SDS011;59323;50.874;7.028;2023-10-19T13:45:43;8.68;;;2.20;;
71503;SDS011;59323;50.874;7.028;2023-10-19T13:48:10;12.00;;;2.55;;
71503;SDS011;59323;50.874;7.028;2023-10-19T13:50:44;8.15;;;2.55;;
71503;SDS011;59323;50.874;7.028;2023-10-19T13:53:13;8.73;;;2.17;;
71503;SDS011;59323;50.874;7.028;2023-10-19T13:55:42;7.78;;;2.25;;
71503;SDS011;59323;50.874;7.028;2023-10-19T13:58:08;9.90;;;2.70;;
71503;SDS011;59323;50.874;7.028;2023-10-19T14:00:34;8.23;;;2.40;;
71503;SDS011;59323;50.874;7.028;2023-10-19T14:02:59;11.15;;;2.40;;
71503;SDS011;59323;50.874;7.028;2023-10-19T14:05:26;8.65;;;2.13;;
71503;SDS011;59323;50.874;7.028;2023-10-19T14:07:52;11.35;;;2.33;;
71503;SDS011;59323;50.874;7.028;2023-10-19T14:10:18;8.90;;;2.43;;
71503;SDS011;59323;50.874;7.028;2023-10-19T14:12:47;8.95;;;2.30;;
71503;SDS011;59323;50.874;7.028;2023-10-19T14:15:15;10.65;;;2.55;;
71503;SDS011;59323;50.874;7.028;2023-10-19T14:17:42;8.82;;;2.83;;
71503;SDS011;59323;50.874;7.028;2023-10-19T14:20:08;12.77;;;2.93;;
71503;SDS011;59323;50.874;7.028;2023-10-19T14:25:05;12.20;;;2.83;;
71503;SDS011;59323;50.874;7.028;2023-10-19T14:27:33;9.25;;;2.80;;
71503;SDS011;59323;50.874;7.028;2023-10-19T14:29:59;8.73;;;3.15;;
71503;SDS011;59323;50.874;7.028;2023-10-19T14:32:25;9.87;;;2.80;;
71503;SDS011;59323;50.874;7.028;2023-10-19T14:34:52;9.65;;;2.90;;
71503;SDS011;59323;50.874;7.028;2023-10-19T14:37:18;9.45;;;2.88;;
71503;SDS011;59323;50.874;7.028;2023-10-19T14:39:43;10.40;;;2.73;;
71503;SDS011;59323;50.874;7.028;2023-10-19T14:42:10;8.30;;;2.80;;
71503;SDS011;59323;50.874;7.028;2023-10-19T14:44:35;7.67;;;2.70;;
71503;SDS011;59323;50.874;7.028;2023-10-19T14:47:01;10.77;;;3.33;;
71503;SDS011;59323;50.874;7.028;2023-10-19T14:49:27;8.47;;;2.60;;
71503;SDS011;59323;50.874;7.028;2023-10-19T14:51:53;14.00;;;3.17;;
71503;SDS011;59323;50.874;7.028;2023-10-19T14:54:18;10.60;;;2.10;;
71503;SDS011;59323;50.874;7.028;2023-10-19T14:56:43;9.47;;;2.80;;
71503;SDS011;59323;50.874;7.028;2023-10-19T14:59:09;8.87;;;2.67;;
71503;SDS011;59323;50.874;7.028;2023-10-19T15:01:34;7.83;;;2.73;;
71503;SDS011;59323;50.874;7.028;2023-10-19T15:04:00;17.23;;;4.07;;
71503;SDS011;59323;50.874;7.028;2023-10-19T15:06:26;7.47;;;3.00;;
71503;SDS011;59323;50.874;7.028;2023-10-19T15:08:53;7.80;;;2.85;;